X  Bezárás Metar Aviation Weather Data     LHBP Budapest Liszt Ferenc International Airport
Hőmérséklet
21°C Hőmérséklet
9°C Harmatpont
46% Páratartalom



Szél
8 KM/H
5 MPH
2 M/S
4 KTS



190°
Déli
Current Conditions

Clear Clear
Pressure 1019.92 (hPa) - 30.12 (inHg)
Visibility 6.2 (mile) - 10 (km)
Repülőtér
Airport-code LHBP

Location: Budapest Liszt Ferenc International Airport
Távolság: 14 (km)

Metar:
LHBP 100800Z 19004KT 140V260 CAVOK 21/09 Q1020 NOSIG

Idő: 10-09-2021 10:00 CEST